createdAt,value
2017-05-27T08:40:39.175Z,92800
2017-05-27T08:41:21.629Z,94816
2017-05-27T08:42:05.070Z,92384
2017-05-27T08:42:46.407Z,90272
2017-05-27T08:43:26.950Z,88320
2017-05-27T08:44:08.146Z,90688
2017-05-27T08:44:53.509Z,92576
2017-05-27T08:45:33.987Z,94912
2017-05-27T08:46:17.164Z,93440
2017-05-27T08:46:57.620Z,90688
2017-05-27T08:47:38.227Z,88256
2017-05-27T08:49:54.421Z,93792
2017-05-27T08:50:37.426Z,93696
2017-05-27T08:52:53.614Z,93504
2017-05-27T08:53:36.735Z,97344
2017-05-27T08:54:23.726Z,99808
2017-05-27T08:55:05.725Z,100192
2017-05-27T08:57:39.430Z,96416
2017-05-27T08:58:20.384Z,94016
2017-05-27T08:59:00.825Z,96320
2017-05-27T08:59:41.217Z,97664
2017-05-27T09:00:24.321Z,96416
2017-05-27T09:01:04.744Z,96224
2017-05-27T09:01:45.163Z,99328
2017-05-27T09:02:25.661Z,97248
2017-05-27T09:03:06.425Z,96288
2017-05-27T09:03:46.915Z,94784
2017-05-27T09:04:29.849Z,94496
2017-05-27T09:06:28.557Z,95008
2017-05-27T09:07:09.787Z,101056
2017-05-27T09:07:51.169Z,105312
2017-05-27T09:08:31.610Z,103680
2017-05-27T09:09:12.672Z,99360
2017-05-27T09:11:43.614Z,96928
2017-05-27T09:12:24.951Z,100000
2017-05-27T09:13:05.260Z,98688
2017-05-27T09:13:45.712Z,96672
2017-05-27T09:14:26.315Z,97344
2017-05-27T09:15:07.250Z,100352
2017-05-27T09:17:20.249Z,101312
2017-05-27T09:18:01.223Z,100672
2017-05-27T09:18:41.753Z,100768
2017-05-27T09:19:23.079Z,104448
2017-05-27T09:21:54.038Z,101088
2017-05-27T09:22:34.802Z,97728
2017-05-27T09:23:15.503Z,90048
2017-05-27T09:27:27.515Z,83360
2017-05-27T09:28:09.978Z,90112
2017-05-27T09:28:51.300Z,95168
2017-05-27T09:29:31.679Z,100288
2017-05-27T09:30:14.148Z,102144
2017-05-27T09:30:54.600Z,106560
2017-05-27T09:31:36.037Z,102208
2017-05-27T09:32:17.214Z,100032
2017-05-27T09:32:57.710Z,102432
2017-05-27T09:35:25.957Z,94880
2017-05-27T09:36:08.998Z,97376
2017-05-27T09:36:49.432Z,100416
2017-05-27T09:37:29.975Z,100192
2017-05-27T09:38:10.342Z,103648
2017-05-27T09:38:50.849Z,106592
2017-05-27T09:39:32.903Z,105312
2017-05-27T09:40:15.144Z,105376
2017-05-27T09:40:55.688Z,105216
2017-05-27T09:41:36.126Z,102112
2017-05-27T09:42:18.263Z,99904
2017-05-27T09:43:00.523Z,100608
2017-05-27T09:43:40.928Z,104864
2017-05-27T09:44:21.390Z,105664
2017-05-27T09:45:01.937Z,103744
2017-05-27T09:45:43.406Z,103680
2017-05-27T09:46:23.612Z,102432
2017-05-27T09:47:04.745Z,103008
2017-05-27T09:47:45.128Z,103904
2017-05-27T09:48:26.289Z,105952
2017-05-27T09:49:06.706Z,103840
2017-05-27T09:49:47.801Z,102016
2017-05-27T09:50:29.316Z,103648
2017-05-27T09:51:09.788Z,105120
2017-05-27T09:51:51.833Z,101824
2017-05-27T09:52:32.240Z,102880
2017-05-27T09:53:12.707Z,103072
2017-05-27T09:55:43.346Z,97280
2017-05-27T09:56:23.792Z,97088
2017-05-27T09:57:04.291Z,97664
2017-05-27T09:57:45.455Z,97184
2017-05-27T09:58:26.716Z,97504
2017-05-27T09:59:07.133Z,101088
2017-05-27T09:59:49.334Z,104480
2017-05-27T10:00:29.797Z,104352
2017-05-27T10:01:11.251Z,99552
2017-05-27T10:01:51.754Z,96448
2017-05-27T10:02:32.223Z,97056
2017-05-27T10:05:05.308Z,99648
2017-05-27T10:05:45.756Z,101312
2017-05-27T10:06:26.204Z,101824
2017-05-27T10:07:06.672Z,104288
2017-05-27T10:07:47.156Z,107872
2017-05-27T10:08:27.624Z,108544
2017-05-27T10:09:08.100Z,107168
2017-05-27T10:09:51.387Z,107040
2017-05-27T10:10:31.845Z,106400
2017-05-27T10:11:12.311Z,100832
2017-05-27T10:11:52.771Z,94912
2017-05-27T10:12:33.272Z,94944
2017-05-27T10:13:15.359Z,101088
2017-05-27T10:13:56.541Z,105088
2017-05-27T10:14:36.978Z,101696
2017-05-27T10:15:18.349Z,100352
2017-05-27T10:15:59.338Z,97312
2017-05-27T10:16:39.818Z,97120
2017-05-27T10:18:55.485Z,96576
2017-05-27T10:19:35.960Z,96544
2017-05-27T10:20:16.402Z,95328
2017-05-27T10:20:57.163Z,94784
2017-05-27T10:21:40.508Z,98496
2017-05-27T10:22:20.942Z,100768
2017-05-27T10:23:02.300Z,99456
2017-05-27T10:23:43.285Z,97408
2017-05-27T10:24:25.609Z,97280
2017-05-27T10:25:06.590Z,97344
2017-05-27T10:25:47.057Z,101984
2017-05-27T10:26:27.523Z,104576
2017-05-27T10:27:08.525Z,104224
2017-05-27T10:29:22.325Z,107520
2017-05-27T10:30:02.785Z,105920
2017-05-27T10:30:43.252Z,103616
2017-05-27T10:31:24.582Z,104480
2017-05-27T10:36:29.000Z,102272
2017-05-27T10:37:09.475Z,103776
2017-05-27T10:37:49.927Z,104640
2017-05-27T10:38:30.408Z,106592
2017-05-27T10:39:11.501Z,107040
2017-05-27T10:39:52.934Z,106272
2017-05-27T10:40:33.329Z,105248
2017-05-27T10:41:28.478Z,106240
2017-05-27T10:48:37.020Z,108704
2017-05-27T10:49:18.020Z,105248
2017-05-27T10:49:59.292Z,100736
2017-05-27T10:50:39.779Z,98816
2017-05-27T10:51:20.195Z,104992
2017-05-27T10:52:01.294Z,109408
2017-05-27T10:52:47.361Z,107744
2017-05-27T10:53:29.303Z,105280
2017-05-27T10:54:10.098Z,106880
2017-05-27T10:54:51.671Z,108224
2017-05-27T10:57:21.003Z,103136
2017-05-27T10:58:05.034Z,103104
2017-05-27T10:58:48.506Z,101440
2017-05-27T11:01:22.429Z,108192
2017-05-27T11:02:02.961Z,101536
2017-05-27T11:07:58.995Z,102560
2017-05-27T11:13:11.381Z,106848
2017-05-27T11:13:51.831Z,105472
2017-05-27T11:14:32.317Z,102784
2017-05-27T11:15:13.708Z,98656
2017-05-27T11:15:56.807Z,98400
2017-05-27T11:16:37.320Z,100672
2017-05-27T11:17:17.762Z,103296
2017-05-27T11:17:58.166Z,102304
2017-05-27T11:18:40.747Z,102720
2017-05-27T11:19:21.764Z,100832
2017-05-27T11:20:02.187Z,98656
2017-05-27T11:20:43.290Z,100032
2017-05-27T11:21:23.675Z,102848
2017-05-27T11:23:45.161Z,100960
2017-05-27T11:24:30.545Z,102336
2017-05-27T11:25:11.775Z,101856
2017-05-27T11:25:52.432Z,98240
2017-05-27T11:26:32.883Z,95840
2017-05-27T11:27:14.009Z,96544
2017-05-27T11:27:54.434Z,99264
2017-05-27T11:30:22.979Z,105344
2017-05-27T11:31:03.436Z,105504
2017-05-27T11:31:43.843Z,101312
2017-05-27T11:34:17.039Z,101504
2017-05-27T11:34:57.531Z,102688
2017-05-27T11:35:37.971Z,99712
2017-05-27T11:36:18.369Z,98496
2017-05-27T11:36:58.861Z,100000
2017-05-27T11:37:41.197Z,101184
2017-05-27T11:39:54.368Z,100768
2017-05-27T11:40:35.799Z,99520
2017-05-27T11:41:17.199Z,98592
2017-05-27T11:41:58.266Z,100704
2017-05-27T11:42:38.737Z,103744
2017-05-27T11:43:20.966Z,101504
2017-05-27T11:44:02.366Z,102240
2017-05-27T11:44:43.523Z,104160
2017-05-27T11:45:24.006Z,103776
2017-05-27T11:46:04.469Z,103936
2017-05-27T11:46:45.804Z,104608
2017-05-27T11:47:27.956Z,101504
2017-05-27T11:48:12.037Z,97440
2017-05-27T11:48:57.256Z,99488
2017-05-27T11:49:41.446Z,101696
2017-05-27T11:50:23.251Z,99872
2017-05-27T11:51:03.725Z,100736
2017-05-27T11:51:44.981Z,104448
2017-05-27T11:52:25.412Z,104960
2017-05-27T11:53:05.803Z,102880
2017-05-27T11:53:46.228Z,99328
2017-05-27T11:54:28.517Z,98304
2017-05-27T11:55:08.896Z,96608
2017-05-27T11:55:50.968Z,96160
2017-05-27T11:56:33.245Z,96672
2017-05-27T11:57:14.616Z,96256
2017-05-27T11:57:55.099Z,99232
2017-05-27T11:58:36.086Z,103296
2017-05-27T11:59:16.634Z,103360
2017-05-27T11:59:57.068Z,103168
2017-05-27T12:02:22.564Z,106528
2017-05-27T12:03:02.996Z,103008
2017-05-27T12:03:43.455Z,101568
2017-05-27T12:04:23.889Z,103104
2017-05-27T12:05:04.311Z,107296
2017-05-27T12:05:44.787Z,108768
2017-05-27T12:06:25.230Z,108512
2017-05-27T12:07:05.688Z,103488
2017-05-27T12:07:46.176Z,98816
2017-05-27T12:08:26.654Z,96928
2017-05-27T12:09:07.101Z,97856
2017-05-27T12:09:47.539Z,99584
2017-05-27T12:10:28.014Z,99392
2017-05-27T12:11:08.487Z,98176
2017-05-27T12:11:48.968Z,97728
2017-05-27T12:13:46.788Z,106464
2017-05-27T12:14:27.230Z,103744
2017-05-27T12:15:08.248Z,101696
2017-05-27T12:15:48.674Z,102240
2017-05-27T12:16:29.107Z,101600
2017-05-27T12:17:09.595Z,102336
2017-05-27T12:17:50.134Z,102624
2017-05-27T12:18:30.530Z,104160
2017-05-27T12:19:10.954Z,103648
2017-05-27T12:21:25.455Z,100800
2017-05-27T12:22:05.917Z,101888
2017-05-27T12:22:46.871Z,104736
2017-05-27T12:23:27.289Z,106720
2017-05-27T12:24:07.718Z,108000
2017-05-27T12:26:07.141Z,105984
2017-05-27T12:26:47.606Z,102464
2017-05-27T12:27:28.021Z,101504
2017-05-27T12:28:09.107Z,100096
2017-05-27T12:28:49.530Z,95648
2017-05-27T12:29:29.961Z,96384
2017-05-27T12:31:58.272Z,93600
2017-05-27T12:32:38.734Z,95840
2017-05-27T12:33:19.261Z,98688
2017-05-27T12:33:59.691Z,98048
2017-05-27T12:36:31.059Z,104704
2017-05-27T12:37:11.524Z,102624
2017-05-27T12:37:52.002Z,102336
2017-05-27T12:38:32.487Z,101952
2017-05-27T12:39:13.055Z,101344
2017-05-27T12:39:53.589Z,101184
2017-05-27T12:40:34.012Z,100672
2017-05-27T12:41:14.888Z,98176
2017-05-27T12:41:55.548Z,94592
2017-05-27T12:42:36.022Z,93760
2017-05-27T12:45:09.326Z,98464
2017-05-27T12:45:49.759Z,104384
2017-05-27T12:46:30.205Z,103520
2017-05-27T12:47:10.648Z,102848
2017-05-27T12:47:51.156Z,101664
2017-05-27T12:48:31.646Z,96448
2017-05-27T12:49:12.129Z,92672
2017-05-27T12:49:52.604Z,90048
2017-05-27T12:52:20.631Z,96864
2017-05-27T12:53:01.078Z,98528
2017-05-27T12:53:41.536Z,99168
2017-05-27T12:54:21.966Z,98400
2017-05-27T12:55:02.431Z,97920
2017-05-27T12:55:42.840Z,98176
2017-05-27T12:56:23.302Z,99456
2017-05-27T12:57:03.768Z,97920
2017-05-27T12:57:44.168Z,96960
2017-05-27T12:58:24.666Z,96128
2017-05-27T13:00:52.794Z,94848
2017-05-27T13:01:33.203Z,95936
2017-05-27T13:02:13.661Z,93408
2017-05-27T13:02:54.120Z,93536
2017-05-27T13:03:34.558Z,94880
2017-05-27T13:05:52.559Z,96992
2017-05-27T13:06:32.987Z,100768
2017-05-27T13:07:13.438Z,101344
2017-05-27T13:07:53.873Z,103392
2017-05-27T13:08:34.339Z,104352
2017-05-27T13:09:15.545Z,106592
2017-05-27T13:09:55.997Z,107456
2017-05-27T13:10:36.468Z,103904
2017-05-27T13:11:16.941Z,101408
2017-05-27T13:11:57.376Z,96192
2017-05-27T13:12:38.541Z,91264
2017-05-27T13:13:18.960Z,88320
2017-05-27T13:13:59.423Z,91104
2017-05-27T13:14:39.853Z,96512
2017-05-27T13:15:20.320Z,95552
2017-05-27T13:16:00.766Z,93728
2017-05-27T13:16:41.170Z,90688
2017-05-27T13:17:21.607Z,69280
2017-05-27T13:18:02.019Z,41536
2017-05-27T13:18:42.459Z,20800
2017-05-27T13:19:22.911Z,15024
2017-05-27T13:20:03.380Z,13684
2017-05-27T13:20:43.874Z,12456
2017-05-27T13:21:24.254Z,11476
2017-05-27T13:22:04.708Z,9956
2017-05-27T13:22:45.192Z,10040
2017-05-27T13:23:25.677Z,9556
2017-05-27T13:24:06.138Z,9200
2017-05-27T13:24:46.577Z,8916
2017-05-27T13:25:26.975Z,8700
2017-05-27T13:26:07.442Z,8524
2017-05-27T13:26:47.950Z,8376
2017-05-27T13:27:28.356Z,8228
2017-05-27T13:28:08.815Z,8052
2017-05-27T13:28:49.256Z,7864
2017-05-27T13:29:29.673Z,7692
2017-05-27T13:30:10.130Z,7528
2017-05-27T13:30:50.544Z,7408
2017-05-27T13:31:31.029Z,7316
2017-05-27T13:34:05.334Z,7140
2017-05-27T13:34:45.797Z,7116
2017-05-27T13:35:26.254Z,7088
2017-05-27T13:36:06.676Z,7084
2017-05-27T13:36:47.171Z,7096
2017-05-27T13:37:27.863Z,7112
2017-05-27T13:38:08.319Z,7092
2017-05-27T13:40:36.607Z,7188
2017-05-27T13:41:17.051Z,7160
2017-05-27T13:41:57.700Z,7156
2017-05-27T13:42:38.170Z,7136
2017-05-27T13:43:18.558Z,7112
2017-05-27T13:43:58.974Z,7092
2017-05-27T13:44:39.499Z,7048
2017-05-27T13:45:19.940Z,7000
2017-05-27T13:46:01.336Z,6948
2017-05-27T13:46:41.806Z,6900
2017-05-27T13:47:22.223Z,6856
2017-05-27T13:48:02.656Z,6832
2017-05-27T13:48:43.066Z,6820
2017-05-27T13:49:23.455Z,6800
2017-05-27T13:50:03.923Z,6764
2017-05-27T13:50:44.325Z,6720
2017-05-27T13:51:24.943Z,6700
2017-05-27T13:52:05.349Z,6684
2017-05-27T13:52:45.733Z,6656
2017-05-27T13:53:26.272Z,6632
2017-05-27T13:54:06.699Z,6628
2017-05-27T13:54:47.137Z,6636
2017-05-27T13:56:44.895Z,6624
2017-05-27T13:57:25.326Z,6600
2017-05-27T13:58:05.808Z,6576
2017-05-27T13:58:46.288Z,6548
2017-05-27T13:59:26.717Z,6520
2017-05-27T14:00:07.134Z,6468
2017-05-27T14:00:47.530Z,6424
2017-05-27T14:01:27.978Z,6392
2017-05-27T14:02:08.432Z,6356
2017-05-27T14:02:48.833Z,6308
2017-05-27T14:03:29.245Z,6264
2017-05-27T14:04:09.695Z,6228
2017-05-27T14:04:50.108Z,6192
2017-05-27T14:05:30.535Z,6140
2017-05-27T14:06:10.938Z,6096
2017-05-27T14:06:51.356Z,6048
2017-05-27T14:07:31.729Z,6020
2017-05-27T14:08:12.182Z,6012
2017-05-27T14:08:52.582Z,5996
2017-05-27T14:09:33.024Z,6000
2017-05-27T14:10:13.465Z,6008
2017-05-27T14:10:53.867Z,5996
2017-05-27T14:11:34.303Z,5976
2017-05-27T14:12:14.728Z,5956
2017-05-27T14:12:55.157Z,5944
2017-05-27T14:13:35.556Z,5932
2017-05-27T14:14:15.986Z,5920
2017-05-27T14:14:56.358Z,5880
2017-05-27T14:15:36.798Z,5808
2017-05-27T14:16:17.210Z,5736
2017-05-27T14:16:57.688Z,5668
2017-05-27T14:17:38.109Z,5592
2017-05-27T14:18:18.517Z,5512
2017-05-27T14:20:52.402Z,5240
2017-05-27T14:21:32.855Z,5188
2017-05-27T14:22:13.300Z,5144
2017-05-27T14:22:53.724Z,5120
2017-05-27T14:23:34.179Z,5116
2017-05-27T14:24:14.627Z,5096
2017-05-27T14:26:13.106Z,5048
2017-05-27T14:26:53.559Z,5024
2017-05-27T14:27:33.986Z,4992
2017-05-27T14:28:14.427Z,4960
2017-05-27T14:28:54.856Z,4916
2017-05-27T14:29:35.294Z,4872
2017-05-27T14:30:15.736Z,4828
2017-05-27T14:30:56.178Z,4792
2017-05-27T14:31:36.634Z,4760
2017-05-27T14:32:17.063Z,4732
2017-05-27T14:32:57.569Z,4704
2017-05-27T14:33:38.070Z,4676
2017-05-27T14:34:18.543Z,4652
2017-05-27T14:34:59.009Z,4616
2017-05-27T14:35:39.371Z,4592
2017-05-27T14:36:19.863Z,4568
2017-05-27T14:37:00.326Z,4548
2017-05-27T14:37:40.676Z,4520
2017-05-27T14:38:21.098Z,4488
2017-05-27T14:39:01.523Z,4456
2017-05-27T14:39:41.955Z,4416
2017-05-27T14:40:22.395Z,4384
2017-05-27T14:41:02.853Z,4352
2017-05-27T14:41:43.295Z,4316
2017-05-27T14:42:23.740Z,4280
2017-05-27T14:43:04.133Z,4252
2017-05-27T14:45:37.433Z,4144
2017-05-27T14:46:17.877Z,4132
2017-05-27T14:46:58.384Z,4124
2017-05-27T14:47:38.752Z,4116
2017-05-27T14:48:19.180Z,4112
2017-05-27T14:48:59.617Z,4104
2017-05-27T14:49:40.012Z,4084
2017-05-27T14:50:20.420Z,4056
2017-05-27T14:51:00.935Z,4032
2017-05-27T14:51:41.366Z,4020
2017-05-27T14:53:39.102Z,3980
2017-05-27T14:54:19.549Z,3972
2017-05-27T14:55:00.003Z,3968
2017-05-27T14:55:40.425Z,3968
2017-05-27T14:56:20.820Z,3964
2017-05-27T14:57:01.240Z,3972
2017-05-27T14:57:41.661Z,3976
2017-05-27T14:58:22.143Z,3976
2017-05-27T14:59:02.577Z,3968
2017-05-27T14:59:43.063Z,3964
2017-05-27T15:00:23.478Z,3960
2017-05-27T15:01:03.896Z,3952
2017-05-27T15:01:44.338Z,3940
2017-05-27T15:02:24.772Z,3920
2017-05-27T15:03:05.209Z,3900
2017-05-27T15:03:45.610Z,3884
2017-05-27T15:04:26.045Z,3876
2017-05-27T15:05:06.490Z,3884
2017-05-27T15:05:46.930Z,3864
2017-05-27T15:08:05.157Z,3828
2017-05-27T15:08:45.574Z,3808
2017-05-27T15:09:26.008Z,3792
2017-05-27T15:10:06.435Z,3784
2017-05-27T15:10:47.024Z,3772
2017-05-27T15:11:27.377Z,3764
2017-05-27T15:14:00.548Z,3720
2017-05-27T15:14:40.950Z,3704
2017-05-27T15:15:21.415Z,3688
2017-05-27T15:16:01.838Z,3672
2017-05-27T15:16:42.496Z,3652
2017-05-27T15:17:22.894Z,3632
2017-05-27T15:18:03.323Z,3616
2017-05-27T15:18:43.715Z,3592
2017-05-27T15:19:24.143Z,3572
2017-05-27T15:20:04.589Z,3556
2017-05-27T15:20:45.006Z,3540
2017-05-27T15:21:25.507Z,3516
2017-05-27T15:22:05.952Z,3500
2017-05-27T15:22:46.403Z,3488
2017-05-27T15:23:26.899Z,3476
2017-05-27T15:24:07.293Z,3468
2017-05-27T15:24:47.770Z,3456
2017-05-27T15:25:28.179Z,3440
2017-05-27T15:26:08.621Z,3424
2017-05-27T15:26:49.128Z,3412
2017-05-27T15:27:29.532Z,3396
2017-05-27T15:29:27.368Z,3340
2017-05-27T15:30:07.908Z,3316
2017-05-27T15:30:48.276Z,3304
2017-05-27T15:31:28.703Z,3292
2017-05-27T15:32:09.091Z,3288
2017-05-27T15:32:49.575Z,3280
2017-05-27T15:33:30.004Z,3276
2017-05-27T15:34:10.414Z,3264
2017-05-27T15:34:50.915Z,3248
2017-05-27T15:35:31.400Z,3224
2017-05-27T15:36:11.864Z,3204
2017-05-27T15:36:52.312Z,3188
2017-05-27T15:37:34.258Z,3180
2017-05-27T15:38:14.676Z,3176
2017-05-27T15:38:55.047Z,3176
2017-05-27T15:39:35.504Z,3168
2017-05-27T15:40:15.949Z,3160
2017-05-27T15:40:56.642Z,3156
2017-05-27T15:41:37.083Z,3148
2017-05-27T15:42:17.530Z,3152
2017-05-27T15:44:50.882Z,3144
2017-05-27T15:45:31.318Z,3136
2017-05-27T15:46:11.828Z,3120
2017-05-27T15:46:52.294Z,3112
2017-05-27T15:47:32.791Z,3104
2017-05-27T15:48:13.173Z,3096
2017-05-27T15:48:53.579Z,3080
2017-05-27T15:49:34.432Z,3060
2017-05-27T15:50:14.888Z,3048
2017-05-27T15:50:55.326Z,3032
2017-05-27T15:51:35.941Z,3032
2017-05-27T15:52:16.387Z,3028
2017-05-27T15:52:56.927Z,3024
2017-05-27T15:53:37.889Z,3012
2017-05-27T15:54:18.433Z,3000
2017-05-27T15:54:59.446Z,2996
2017-05-27T15:55:40.430Z,2984
2017-05-27T15:56:20.898Z,2984
2017-05-27T15:57:01.321Z,2984
2017-05-27T15:57:42.137Z,2984
2017-05-27T15:58:22.297Z,2976
2017-05-27T15:59:02.701Z,2968
2017-05-27T15:59:43.671Z,2948
2017-05-27T16:00:24.189Z,2936
2017-05-27T16:01:04.654Z,2920
2017-05-27T16:01:45.372Z,2912
2017-05-27T16:02:26.150Z,2908
2017-05-27T16:03:06.973Z,2900
2017-05-27T16:03:47.403Z,2892
2017-05-27T16:04:27.880Z,2884
2017-05-27T16:05:08.754Z,2876
2017-05-27T16:05:49.606Z,2872
2017-05-27T16:06:30.015Z,2868
2017-05-27T16:07:11.103Z,2868
2017-05-27T16:07:51.583Z,2864
2017-05-27T16:08:31.954Z,2860
2017-05-27T16:09:12.418Z,2852
2017-05-27T16:09:52.850Z,2840
2017-05-27T16:10:33.295Z,2828
2017-05-27T16:11:13.724Z,2816
2017-05-27T16:11:54.241Z,2804
2017-05-27T16:12:34.679Z,2792
2017-05-27T16:13:15.116Z,2784
2017-05-27T16:13:55.569Z,2780
2017-05-27T16:14:36.068Z,2776
2017-05-27T16:15:16.504Z,2772
2017-05-27T16:15:56.965Z,2764
2017-05-27T16:16:37.420Z,2760
2017-05-27T16:17:17.878Z,2760
2017-05-27T16:17:58.435Z,2748
2017-05-27T16:18:38.851Z,2736
2017-05-27T16:19:19.277Z,2720
2017-05-27T16:19:59.736Z,2708
2017-05-27T16:20:40.144Z,2696
2017-05-27T16:21:20.639Z,2680
2017-05-27T16:22:01.018Z,2668
2017-05-27T16:22:41.466Z,2648
2017-05-27T16:23:21.973Z,2628
2017-05-27T16:24:02.354Z,2604
2017-05-27T16:24:42.910Z,2584
2017-05-27T16:25:23.248Z,2564
2017-05-27T16:27:36.212Z,2500
2017-05-27T16:28:16.645Z,2488
2017-05-27T16:28:57.072Z,2476
2017-05-27T16:29:37.533Z,2468
2017-05-27T16:30:17.927Z,2456
2017-05-27T16:30:58.322Z,2448
2017-05-27T16:31:38.796Z,2444
2017-05-27T16:32:19.186Z,2436
2017-05-27T16:32:59.681Z,2432
2017-05-27T16:33:40.074Z,2428
2017-05-27T16:34:20.449Z,2424
2017-05-27T16:35:00.885Z,2424
2017-05-27T16:35:41.332Z,2424
2017-05-27T16:36:21.774Z,2420
2017-05-27T16:37:02.277Z,2420
2017-05-27T16:37:42.702Z,2416
2017-05-27T16:38:23.170Z,2408
2017-05-27T16:39:03.597Z,2400
2017-05-27T16:39:43.988Z,2396
2017-05-27T16:40:24.431Z,2384
2017-05-27T16:41:04.867Z,2380
2017-05-27T16:41:45.298Z,2376
2017-05-27T16:42:25.709Z,2368
2017-05-27T16:43:06.272Z,2356
2017-05-27T16:43:47.009Z,2340
2017-05-27T16:44:27.403Z,2332
2017-05-27T16:45:07.908Z,2328
2017-05-27T16:45:48.353Z,2324
2017-05-27T16:46:28.811Z,2316
2017-05-27T16:47:09.220Z,2312
2017-05-27T16:47:49.604Z,2304
2017-05-27T16:48:30.035Z,2292
2017-05-27T16:50:42.936Z,2276
2017-05-27T16:51:23.372Z,2272
2017-05-27T16:52:03.812Z,2264
2017-05-27T16:52:44.231Z,2260
2017-05-27T16:53:24.731Z,2260
2017-05-27T16:54:05.165Z,2256
2017-05-27T16:54:45.611Z,2248
2017-05-27T16:55:26.009Z,2248
2017-05-27T16:56:06.419Z,2244
2017-05-27T16:58:04.073Z,2232
2017-05-27T16:58:44.533Z,2232
2017-05-27T16:59:24.993Z,2232
2017-05-27T17:00:05.445Z,2232
2017-05-27T17:00:45.898Z,2228
2017-05-27T17:01:26.384Z,2224
2017-05-27T17:02:06.824Z,2220
2017-05-27T17:02:47.232Z,2216
2017-05-27T17:03:27.691Z,2208
2017-05-27T17:04:08.100Z,2204
2017-05-27T17:04:48.541Z,2200
2017-05-27T17:05:29.054Z,2192
2017-05-27T17:06:09.426Z,2188
2017-05-27T17:06:49.854Z,2180
2017-05-27T17:07:30.310Z,2172
2017-05-27T17:08:10.745Z,2168
2017-05-27T17:08:51.202Z,2160
2017-05-27T17:11:09.301Z,2140
2017-05-27T17:11:49.747Z,2136
2017-05-27T17:12:30.175Z,2128
2017-05-27T17:13:10.602Z,2128
2017-05-27T17:13:51.063Z,2124
2017-05-27T17:14:31.487Z,2120
2017-05-27T17:15:11.896Z,2116
2017-05-27T17:15:52.375Z,2116
2017-05-27T17:16:32.765Z,2116
2017-05-27T17:17:13.178Z,2112
2017-05-27T17:17:53.633Z,2108
2017-05-27T17:18:34.067Z,2108
2017-05-27T17:19:14.551Z,2104
2017-05-27T17:19:54.975Z,2100
2017-05-27T17:22:23.276Z,2080
2017-05-27T17:23:03.701Z,2076
2017-05-27T17:25:32.510Z,2056
2017-05-27T17:26:12.930Z,2052
2017-05-27T17:26:53.399Z,2048
2017-05-27T17:29:26.582Z,2028
2017-05-27T17:30:07.034Z,2020
2017-05-27T17:30:47.608Z,2012
2017-05-27T17:31:28.060Z,2008
2017-05-27T17:32:08.506Z,2000
2017-05-27T17:32:49.020Z,1992
2017-05-27T17:33:29.437Z,1988
2017-05-27T17:34:09.896Z,1980
2017-05-27T17:34:50.362Z,1972
2017-05-27T17:37:04.234Z,1956
2017-05-27T17:37:44.676Z,1948
2017-05-27T17:38:25.105Z,1944
2017-05-27T17:39:05.606Z,1936
2017-05-27T17:39:46.088Z,1932
2017-05-27T17:40:26.515Z,1928
2017-05-27T17:41:06.981Z,1920
2017-05-27T17:43:24.952Z,1896
2017-05-27T17:44:05.373Z,1888
2017-05-27T17:44:45.821Z,1880
2017-05-27T17:47:15.090Z,1860
2017-05-27T17:47:55.472Z,1852
2017-05-27T17:48:35.951Z,1848
2017-05-27T17:49:16.513Z,1844
2017-05-27T17:49:56.980Z,1836
2017-05-27T17:50:37.425Z,1828
2017-05-27T17:51:17.942Z,1816
2017-05-27T17:51:58.390Z,1812
2017-05-27T17:52:38.856Z,1808
2017-05-27T17:53:19.297Z,1800
2017-05-27T17:53:59.712Z,1792
2017-05-27T17:54:40.126Z,1788
2017-05-27T17:55:20.553Z,1780
2017-05-27T17:56:00.989Z,1772
2017-05-27T17:56:41.400Z,1768
2017-05-27T17:57:21.833Z,1760
2017-05-27T17:58:02.257Z,1752
2017-05-27T17:58:42.703Z,1744
2017-05-27T17:59:23.138Z,1736
2017-05-27T18:00:03.538Z,1728
2017-05-27T18:02:36.625Z,1696
2017-05-27T18:03:17.073Z,1688
2017-05-27T18:03:57.479Z,1676
2017-05-27T18:04:37.915Z,1668
2017-05-27T18:05:18.360Z,1660
2017-05-27T18:05:58.745Z,1652
2017-05-27T18:06:39.162Z,1640
2017-05-27T18:07:19.598Z,1632
2017-05-27T18:07:59.997Z,1624
2017-05-27T18:08:40.444Z,1616
2017-05-27T18:09:20.807Z,1604
2017-05-27T18:10:01.392Z,1596
2017-05-27T18:10:41.814Z,1584
2017-05-27T18:11:22.341Z,1576
2017-05-27T18:12:02.779Z,1568
2017-05-27T18:12:43.185Z,1560
2017-05-27T18:14:56.202Z,1528
2017-05-27T18:15:36.624Z,1516
2017-05-27T18:16:17.028Z,1508
2017-05-27T18:16:57.457Z,1496
2017-05-27T18:17:37.873Z,1484
2017-05-27T18:18:18.313Z,1476
2017-05-27T18:18:58.702Z,1464
2017-05-27T18:20:56.440Z,1436
2017-05-27T18:21:36.888Z,1424
2017-05-27T18:22:17.336Z,1416
2017-05-27T18:22:57.763Z,1400
2017-05-27T18:23:38.230Z,1388
2017-05-27T18:24:18.630Z,1376
2017-05-27T18:24:59.053Z,1364
2017-05-27T18:25:39.450Z,1352
2017-05-27T18:28:07.419Z,1304
2017-05-27T18:28:47.853Z,1292
2017-05-27T18:29:28.317Z,1284
2017-05-27T18:30:08.827Z,1268
2017-05-27T18:30:49.187Z,1256
2017-05-27T18:31:29.591Z,1240
2017-05-27T18:33:47.497Z,1196
2017-05-27T18:34:27.925Z,1184
2017-05-27T18:35:08.337Z,1168
2017-05-27T18:35:48.759Z,1160
2017-05-27T18:36:29.223Z,1144
2017-05-27T18:39:02.361Z,1092
2017-05-27T18:39:42.775Z,1080
2017-05-27T18:40:23.226Z,1064
2017-05-27T18:41:03.648Z,1052
2017-05-27T18:41:44.069Z,1032
2017-05-27T18:44:17.254Z,980
2017-05-27T18:44:57.687Z,964
2017-05-27T18:45:38.123Z,948
2017-05-27T18:46:18.596Z,936
2017-05-27T18:46:59.015Z,916
2017-05-27T18:47:39.439Z,904
2017-05-27T18:48:19.885Z,884
2017-05-27T18:49:00.358Z,872
2017-05-27T18:49:40.733Z,856
2017-05-27T18:50:21.124Z,840
2017-05-27T18:51:01.577Z,824
2017-05-27T18:51:41.972Z,804
2017-05-27T18:52:22.399Z,788
2017-05-27T18:53:02.835Z,772
2017-05-27T18:53:43.292Z,760
2017-05-27T18:54:23.772Z,744
2017-05-27T18:55:04.155Z,728
2017-05-27T18:57:32.907Z,664
2017-05-27T18:58:13.356Z,648
2017-05-27T18:58:53.755Z,632
2017-05-27T18:59:34.182Z,612
2017-05-27T19:00:14.631Z,596
2017-05-27T19:00:55.102Z,580
2017-05-27T19:01:35.662Z,564
2017-05-27T19:02:16.017Z,544
2017-05-27T19:02:56.457Z,532
2017-05-27T19:03:37.654Z,512
2017-05-27T19:04:18.152Z,496
2017-05-27T19:04:58.566Z,476
2017-05-27T19:05:38.987Z,460
2017-05-27T19:06:19.407Z,436
2017-05-27T19:06:59.816Z,424
2017-05-27T19:07:40.268Z,400
2017-05-27T19:08:20.672Z,388
2017-05-27T19:09:01.078Z,368
2017-05-27T19:09:41.515Z,352
2017-05-27T19:10:21.895Z,336
2017-05-27T19:11:02.294Z,320
2017-05-27T19:11:42.724Z,304
2017-05-27T19:12:23.134Z,292
2017-05-27T19:13:03.550Z,276
2017-05-27T19:13:43.985Z,260
2017-05-27T19:14:24.485Z,248
2017-05-27T19:16:57.497Z,200
2017-05-27T19:17:37.951Z,192
2017-05-27T19:18:18.365Z,180
2017-05-27T19:18:58.756Z,168
2017-05-27T19:19:39.192Z,160
2017-05-27T19:20:19.627Z,148
2017-05-27T19:21:00.037Z,136
2017-05-27T19:21:40.434Z,132
2017-05-27T19:22:20.888Z,124
2017-05-27T19:23:01.361Z,116
2017-05-27T19:23:41.794Z,104
2017-05-27T19:24:22.259Z,96
2017-05-27T19:25:02.621Z,92
2017-05-27T19:25:43.035Z,84
2017-05-27T19:26:23.432Z,76
2017-05-27T19:27:03.845Z,72
2017-05-27T19:27:44.366Z,64
2017-05-27T19:28:24.857Z,60
2017-05-27T19:29:05.227Z,56
2017-05-27T19:29:45.658Z,56
2017-05-27T19:31:58.517Z,40
2017-05-27T19:32:38.965Z,36
2017-05-27T19:33:19.367Z,32
2017-05-27T19:33:59.815Z,32
2017-05-27T19:34:40.261Z,28
2017-05-27T19:35:20.664Z,28
2017-05-27T19:36:01.103Z,24